»·PEaware :: N915TB KPSP-P23

N915TB :: KPSP-P23

FLIGHT INFORMATION

Flight Status: Arrived
Operator: Privately registered:
United States
More flights under this callsign
Pilot: Jake M. (20491)
Aircraft: SOCATA TBM-900
(TBM9)
More flights by this aircraft type
Origin: KPSP Palm Springs Intl
United States
Destination: P23 Seligman
United States
More flights between these airports :: More routes between these airports
Route: +CATH1 PSP TNP V208 PGS
File this flight plan on PilotEdge
Remarks:
Altitude:
(Current/Filed)
27,000ft
Speed:
(Current/Filed)
308kts
Departed: 14-Jan-20 06:33 PM
Arrived: 14-Jan-20 07:24 PM
Distance/Time
Traveled:
208nm/0:51
Distance/Time
To Go:
Arrived

Flight Plot

Page will automatically refresh every two minutes.

Flight plan parsing failed; only flown route is shown


Map Options




Map Legend


Flown Route
Filed Route
Departure Airport
Arrival Airport
Navaid (VOR, NDB)
Fix

Horizontal Profiles

Position Reports

Time Latitude Longitude Heading Altitude Ground
Speed
14-Jan-20 18:21 33.828213 -116.509883 171 427ft 0kts
14-Jan-20 18:21 33.828213 -116.509883 171 427ft 0kts
14-Jan-20 18:23 33.828213 -116.509883 171 427ft 0kts
14-Jan-20 18:24 33.828213 -116.509883 171 427ft 0kts
14-Jan-20 18:24 33.828213 -116.509883 171 427ft 0kts
14-Jan-20 18:25 33.828223 -116.509457 75 426ft 3kts
14-Jan-20 18:27 33.827153 -116.507455 144 419ft 25kts
14-Jan-20 18:27 33.823480 -116.504244 143 408ft 14kts
14-Jan-20 18:28 33.819428 -116.500596 143 399ft 16kts
14-Jan-20 18:29 33.818528 -116.499314 92 394ft 6kts
14-Jan-20 18:30 33.818525 -116.499139 90 394ft 4kts
14-Jan-20 18:31 33.818942 -116.498229 356 393ft 10kts
14-Jan-20 18:32 33.836337 -116.514314 322 964ft 119kts
14-Jan-20 18:33 33.866189 -116.543289 322 2368ft 153kts
14-Jan-20 18:34 33.900362 -116.570878 5 4485ft 151kts
14-Jan-20 18:35 33.905085 -116.528153 113 6379ft 162kts
14-Jan-20 18:36 33.903356 -116.475937 68 8235ft 170kts
14-Jan-20 18:37 33.920092 -116.420766 67 10075ft 182kts
14-Jan-20 18:38 33.937682 -116.361830 66 11809ft 194kts
14-Jan-20 18:39 33.956258 -116.299558 66 13549ft 201kts
14-Jan-20 18:40 33.975327 -116.235351 66 15168ft 208kts
14-Jan-20 18:41 33.994919 -116.169195 66 16808ft 212kts
14-Jan-20 18:42 34.015019 -116.101202 67 18305ft 218kts
14-Jan-20 18:43 34.035652 -116.031236 68 19761ft 225kts
14-Jan-20 18:44 34.056975 -115.958723 68 21296ft 234kts
14-Jan-20 18:45 34.078904 -115.883959 69 23080ft 240kts
14-Jan-20 18:46 34.101496 -115.806696 70 24635ft 249kts
14-Jan-20 18:47 34.132248 -115.730774 54 26001ft 256kts
14-Jan-20 18:48 34.170500 -115.656331 55 27090ft 273kts
14-Jan-20 18:49 34.214050 -115.571200 55 27104ft 320kts
14-Jan-20 18:50 34.262892 -115.475458 55 27094ft 344kts
14-Jan-20 18:51 34.314005 -115.375005 55 27090ft 354kts
14-Jan-20 18:52 34.366213 -115.272097 56 27079ft 358kts
14-Jan-20 18:53 34.418258 -115.169228 56 27078ft 360kts
14-Jan-20 18:54 34.470627 -115.065428 56 27063ft 362kts
14-Jan-20 18:55 34.523221 -114.960860 55 27048ft 363kts
14-Jan-20 18:56 34.575790 -114.856030 55 27047ft 364kts
14-Jan-20 18:57 34.628341 -114.750911 55 27058ft 365kts
14-Jan-20 18:58 34.681287 -114.644718 55 27057ft 366kts
14-Jan-20 18:59 34.734612 -114.537424 55 26542ft 380kts
14-Jan-20 19:00 34.800091 -114.436897 34 25603ft 379kts
14-Jan-20 19:01 34.880470 -114.351737 35 24659ft 381kts
14-Jan-20 19:02 34.958049 -114.268494 35 24046ft 364kts
14-Jan-20 19:03 35.032765 -114.188203 35 23955ft 352kts
14-Jan-20 19:04 35.107034 -114.108162 35 22507ft 366kts
14-Jan-20 19:05 35.183500 -114.025521 35 21140ft 363kts
14-Jan-20 19:06 35.227426 -113.920266 94 19578ft 382kts
14-Jan-20 19:07 35.238793 -113.791292 81 17809ft 382kts
14-Jan-20 19:08 35.252907 -113.662538 81 16016ft 377kts
14-Jan-20 19:09 35.266344 -113.538604 81 14191ft 360kts
14-Jan-20 19:10 35.278917 -113.421461 82 12304ft 336kts
14-Jan-20 19:11 35.290385 -113.313782 83 10791ft 300kts
14-Jan-20 19:12 35.295628 -113.216539 100 9726ft 276kts
14-Jan-20 19:13 35.293034 -113.123657 80 8362ft 271kts
14-Jan-20 19:14 35.299640 -113.033345 90 7185ft 261kts
14-Jan-20 19:15 35.300191 -112.948023 86 6102ft 229kts
14-Jan-20 19:16 35.331485 -112.892746 52 5960ft 182kts
14-Jan-20 19:17 35.361371 -112.843126 55 6128ft 179kts
14-Jan-20 19:18 35.375205 -112.790639 46 6306ft 154kts
14-Jan-20 19:19 35.377734 -112.818290 226 6555ft 149kts
14-Jan-20 19:20 35.361389 -112.844321 231 6074ft 130kts
14-Jan-20 19:23 35.334426 -112.886213 52 5229ft 13kts
14-Jan-20 19:24 35.337081 -112.881896 53 5226ft 9kts
14-Jan-20 19:25 35.338902 -112.880137 293 5223ft 11kts
14-Jan-20 19:26 35.322029 -112.892150 137 5963ft 134kts
14-Jan-20 19:27 35.293637 -112.858027 153 8261ft 141kts
14-Jan-20 19:28 35.259411 -112.833910 157 10372ft 148kts
14-Jan-20 19:29 35.220456 -112.807125 157 11690ft 198kts
14-Jan-20 19:30 35.165787 -112.769278 155 11518ft 243kts
14-Jan-20 19:31 35.109724 -112.725401 130 11532ft 255kts
14-Jan-20 19:32 35.058219 -112.668263 150 11116ft 264kts
14-Jan-20 19:33 34.994623 -112.617159 150 9828ft 275kts
14-Jan-20 19:34 34.928955 -112.575764 159 9265ft 260kts
14-Jan-20 19:35 34.866579 -112.544310 160 9511ft 241kts
14-Jan-20 19:36 34.805732 -112.513379 160 9416ft 233kts
14-Jan-20 19:37 34.748558 -112.470226 144 8272ft 253kts

Navigation Log

Ident Type
Flight plan parsing failed, navigation log unavailable